Time;durP1;ratioP1;P1;durP2;ratioP2;P2;SDS_P1;SDS_P2;PMS_P1;PMS_P2;Temp;Humidity;BMP_temperature;BMP_pressure;BME280_temperature;BME280_humidity;BME280_pressure;Samples;Min_cycle;Max_cycle;Signal;HPM_P1;HPM_P2
2022/02/20 00:01:57;;;;;;;30.70;13.00;;;;;;;9.59;100.00;98901.72;5162376;27;20068;-94
2022/02/20 00:04:22;;;;;;;30.10;13.05;;;;;;;9.65;100.00;98919.31;5161789;27;20042;-94
2022/02/20 00:06:48;;;;;;;27.52;12.85;;;;;;;9.65;100.00;98922.84;5169438;27;20051;-95
2022/02/20 00:09:14;;;;;;;29.92;13.40;;;;;;;9.49;100.00;98900.16;5181730;27;20039;-95
2022/02/20 00:11:40;;;;;;;31.08;13.82;;;;;;;9.46;100.00;98902.91;5174553;27;20042;-94
2022/02/20 00:14:06;;;;;;;32.03;13.82;;;;;;;9.44;100.00;98899.41;5177324;27;20088;-94
2022/02/20 00:16:35;;;;;;;30.33;13.95;;;;;;;9.51;100.00;98910.75;5180099;27;20058;-93
2022/02/20 00:19:01;;;;;;;27.05;12.45;;;;;;;9.47;100.00;98907.28;5167372;27;20042;-94
2022/02/20 00:21:27;;;;;;;27.20;12.77;;;;;;;9.66;100.00;98926.38;5165783;27;20042;-94
2022/02/20 00:23:53;;;;;;;33.15;13.27;;;;;;;9.63;100.00;98907.88;5164912;27;20079;-95
2022/02/20 00:26:19;;;;;;;26.73;12.30;;;;;;;9.66;100.00;98899.81;5165869;27;20495;-95
2022/02/20 00:28:45;;;;;;;24.48;12.50;;;;;;;9.59;100.00;98891.13;5165835;27;20043;-95
2022/02/20 00:31:11;;;;;;;28.02;12.52;;;;;;;9.69;100.00;98914.81;5166328;27;20395;-94
2022/02/20 00:33:38;;;;;;;23.88;12.50;;;;;;;9.52;100.00;98897.47;5166222;27;20047;-94
2022/02/20 00:36:04;;;;;;;27.10;12.00;;;;;;;9.52;100.00;98894.81;5165834;27;20050;-93
2022/02/20 00:38:31;;;;;;;33.08;13.02;;;;;;;9.52;100.00;98907.19;5166584;27;20047;-94
2022/02/20 00:40:57;;;;;;;29.58;12.88;;;;;;;9.52;100.00;98904.53;5167062;27;20137;-96
2022/02/20 00:43:23;;;;;;;32.15;12.52;;;;;;;9.49;100.00;98897.50;5166419;27;20496;-93
2022/02/20 00:45:49;;;;;;;27.65;12.20;;;;;;;9.55;100.00;98902.69;5166945;27;20507;-94
2022/02/20 00:48:19;;;;;;;26.88;12.57;;;;;;;9.59;100.00;98908.81;5166143;27;20063;-94
2022/02/20 00:50:46;;;;;;;26.02;11.02;;;;;;;9.52;100.00;98891.25;5165537;27;20050;-94
2022/02/20 00:53:13;;;;;;;33.28;12.73;;;;;;;9.52;100.00;98897.47;5166266;27;20039;-95
2022/02/20 00:55:39;;;;;;;23.83;10.82;;;;;;;9.52;100.00;98889.50;5166428;27;20396;-94
2022/02/20 00:58:05;;;;;;;24.25;10.60;;;;;;;9.68;100.00;98913.06;5166160;27;20070;-94
2022/02/20 01:00:32;;;;;;;23.95;11.48;;;;;;;9.66;100.00;98907.78;5166324;27;20038;-94
2022/02/20 01:03:01;;;;;;;21.08;10.80;;;;;;;9.60;100.00;98891.97;5165961;27;20491;-94
2022/02/20 01:05:29;;;;;;;25.92;11.48;;;;;;;9.57;100.00;98886.75;5166672;27;20047;-95
2022/02/20 01:07:57;;;;;;;23.80;11.18;;;;;;;9.63;100.00;98908.72;5155020;27;20035;-92
2022/02/20 01:10:23;;;;;;;22.48;11.18;;;;;;;9.48;100.00;98881.59;5144314;27;20047;-94
2022/02/20 01:12:50;;;;;;;22.65;11.35;;;;;;;9.45;100.00;98879.91;5145018;27;20058;-94
2022/02/20 01:15:18;;;;;;;22.15;11.23;;;;;;;9.53;100.00;98891.22;5144216;27;20077;-93
2022/02/20 01:17:44;;;;;;;26.67;11.18;;;;;;;9.51;100.00;98897.47;5144844;27;20047;-95
2022/02/20 01:20:11;;;;;;;25.48;12.20;;;;;;;9.43;100.00;98884.34;5144219;27;20081;-95
2022/02/20 01:22:37;;;;;;;26.77;11.30;;;;;;;9.41;100.00;98881.75;5164405;27;20215;-93
2022/02/20 01:25:06;;;;;;;23.52;10.15;;;;;;;9.44;100.00;98888.78;5165479;27;20050;-93
2022/02/20 01:27:31;;;;;;;21.27;10.20;;;;;;;9.48;100.00;98893.13;5165311;27;20392;-93
2022/02/20 01:29:57;;;;;;;22.83;10.70;;;;;;;9.55;100.00;98900.03;5164956;27;20051;-95
2022/02/20 01:32:23;;;;;;;26.17;11.40;;;;;;;9.52;100.00;98891.25;5164626;27;20065;-94
2022/02/20 01:34:49;;;;;;;24.77;11.35;;;;;;;9.55;100.00;98896.53;5156064;27;20047;-93
2022/02/20 01:37:15;;;;;;;25.13;11.02;;;;;;;9.63;100.00;98902.56;5141927;27;20035;-93
2022/02/20 01:39:41;;;;;;;24.25;11.35;;;;;;;9.84;100.00;98919.78;5142954;27;20047;-94
2022/02/20 01:42:09;;;;;;;26.85;10.60;;;;;;;9.74;100.00;98904.97;5142431;27;20103;-95
2022/02/20 01:44:35;;;;;;;26.40;11.45;;;;;;;9.78;100.00;98898.66;5143005;27;20047;-93
2022/02/20 01:47:04;;;;;;;26.15;11.13;;;;;;;9.84;100.00;98898.53;5142943;27;20047;-95
2022/02/20 01:49:30;;;;;;;22.95;10.82;;;;;;;9.96;100.00;98916.88;5142239;27;20043;-94
2022/02/20 01:51:56;;;;;;;25.27;11.35;;;;;;;9.96;100.00;98916.88;5142623;27;20043;-93
2022/02/20 01:54:22;;;;;;;24.95;10.88;;;;;;;10.01;100.00;98917.63;5142291;27;20107;-94
2022/02/20 01:56:48;;;;;;;21.83;10.82;;;;;;;10.12;100.00;98935.13;5141948;27;20070;-94
2022/02/20 01:59:17;;;;;;;22.17;10.27;;;;;;;10.14;100.00;98938.63;5148868;27;20047;-95
2022/02/20 02:01:43;;;;;;;24.08;10.50;;;;;;;10.03;100.00;98917.59;5160646;27;20040;-94
2022/02/20 02:04:09;;;;;;;26.58;12.30;;;;;;;10.08;100.00;98927.22;5161407;27;20579;-93
2022/02/20 02:06:37;;;;;;;24.25;10.88;;;;;;;10.19;100.00;98948.25;5160901;27;20047;-93
2022/02/20 02:09:04;;;;;;;33.47;12.77;;;;;;;10.03;100.00;98920.25;5162120;27;20552;-94
2022/02/20 02:11:32;;;;;;;;;;;;;;;10.20;100.00;98946.47;5162878;27;20042;-94
2022/02/20 02:13:58;;;;;;;25.20;10.30;;;;;;;10.02;100.00;98922.06;5163182;27;19914;-93
2022/02/20 02:16:28;;;;;;;23.55;9.85;;;;;;;10.03;100.00;98920.25;5161570;27;20121;-94
2022/02/20 02:18:54;;;;;;;21.02;9.75;;;;;;;10.09;100.00;98922.78;5162567;27;20051;-93
2022/02/20 02:21:20;;;;;;;24.70;10.68;;;;;;;10.14;100.00;98931.50;5162347;27;20107;-95
2022/02/20 02:23:48;;;;;;;26.38;10.10;;;;;;;10.12;100.00;98913.88;5148593;27;20053;-93
2022/02/20 02:26:15;;;;;;;21.20;9.95;;;;;;;10.14;100.00;98917.38;5162079;27;20087;-94
2022/02/20 02:28:41;;;;;;;23.95;9.77;;;;;;;10.18;100.00;98911.06;5161444;27;20039;-93
2022/02/20 02:31:09;;;;;;;23.35;9.52;;;;;;;10.22;100.00;98923.38;5161426;27;20054;-95
2022/02/20 02:33:35;;;;;;;22.15;9.93;;;;;;;10.16;100.00;98912.88;5160929;27;20034;-94
2022/02/20 02:36:06;;;;;;;23.25;11.02;;;;;;;10.19;100.00;98918.13;5148584;27;20039;-93
2022/02/20 02:38:32;;;;;;;22.92;9.77;;;;;;;10.14;100.00;98906.72;5139939;27;20388;-94
2022/02/20 02:41:04;;;;;;;25.83;9.27;;;;;;;10.20;100.00;98914.56;5139756;27;20043;-94
2022/02/20 02:43:30;;;;;;;19.05;9.60;;;;;;;10.17;100.00;98914.63;5138884;27;20428;-93
2022/02/20 02:45:56;;;;;;;20.90;9.68;;;;;;;10.27;100.00;98932.09;5139292;27;20062;-94
2022/02/20 02:48:22;;;;;;;21.33;8.93;;;;;;;10.10;100.00;98913.88;5140112;27;20050;-93
2022/02/20 02:50:48;;;;;;;24.75;10.85;;;;;;;10.11;100.00;98912.13;5140426;27;20035;-95
2022/02/20 02:53:14;;;;;;;26.95;9.57;;;;;;;10.20;100.00;98914.56;5140881;27;20051;-95
2022/02/20 02:55:43;;;;;;;21.88;9.40;;;;;;;10.16;100.00;98905.78;5139859;27;20077;-93
2022/02/20 02:58:15;;;;;;;20.63;9.52;;;;;;;10.19;100.00;98918.13;5139449;27;20077;-95
2022/02/20 03:00:41;;;;;;;20.50;9.43;;;;;;;10.23;100.00;98936.59;5139790;27;20062;-96
2022/02/20 03:03:07;;;;;;;28.23;9.55;;;;;;;10.10;100.00;98924.53;5139666;27;20039;-94
2022/02/20 03:05:33;;;;;;;18.65;9.25;;;;;;;10.09;100.00;98925.44;5139037;27;20107;-95
2022/02/20 03:07:58;;;;;;;21.30;9.43;;;;;;;10.16;100.00;98918.19;5143160;27;20046;-93
2022/02/20 03:10:24;;;;;;;20.83;9.93;;;;;;;10.11;100.00;98920.09;5160376;27;20050;-94
2022/02/20 03:12:51;;;;;;;19.52;9.25;;;;;;;10.00;100.00;98897.31;5160828;27;20043;-94
2022/02/20 03:15:19;;;;;;;25.52;9.80;;;;;;;9.97;100.00;98897.34;5156025;27;20056;-94
2022/02/20 03:17:45;;;;;;;28.30;10.82;;;;;;;9.96;100.00;98892.09;5140313;28;20039;-92
2022/02/20 03:20:11;;;;;;;23.92;10.80;;;;;;;10.05;100.00;98918.44;5139897;27;20050;-93
2022/02/20 03:22:37;;;;;;;22.13;11.60;;;;;;;10.01;100.00;98914.09;5140219;27;20130;-94
2022/02/20 03:25:03;;;;;;;29.15;11.70;;;;;;;9.86;100.00;98894.94;5140245;28;20070;-93
2022/02/20 03:27:29;;;;;;;23.63;11.50;;;;;;;9.94;100.00;98917.81;5140222;27;20039;-94
2022/02/20 03:29:55;;;;;;;25.30;12.20;;;;;;;9.91;100.00;98908.13;5141948;27;20050;-95
2022/02/20 03:32:23;;;;;;;23.67;11.48;;;;;;;9.79;100.00;98890.66;5152925;27;20046;-94
2022/02/20 03:34:49;;;;;;;21.27;11.20;;;;;;;9.78;100.00;98891.59;5160279;27;20043;-94
2022/02/20 03:37:14;;;;;;;23.88;12.05;;;;;;;9.92;100.00;98911.66;5160065;27;20031;-94
2022/02/20 03:39:40;;;;;;;26.35;11.60;;;;;;;9.94;100.00;98910.72;5159901;27;20047;-94
2022/02/20 03:42:06;;;;;;;24.05;11.05;;;;;;;9.77;100.00;98884.53;5144864;27;20071;-93
2022/02/20 03:44:32;;;;;;;24.45;12.20;;;;;;;9.74;100.00;98881.94;5139547;28;20079;-94
2022/02/20 03:46:58;;;;;;;28.05;13.05;;;;;;;9.78;100.00;98888.03;5139786;28;20396;-94
2022/02/20 03:49:26;;;;;;;26.13;13.00;;;;;;;9.67;100.00;98880.31;5138800;28;20050;-93
2022/02/20 03:51:51;;;;;;;32.95;13.38;;;;;;;9.75;100.00;98914.69;5139452;27;20040;-95
2022/02/20 03:54:17;;;;;;;27.83;12.95;;;;;;;9.69;100.00;98913.00;5142522;27;20043;-95
2022/02/20 03:56:43;;;;;;;26.48;12.80;;;;;;;9.78;100.00;98928.78;5156040;27;20042;-94
2022/02/20 03:59:09;;;;;;;25.65;12.55;;;;;;;9.64;100.00;98909.59;5163772;27;20043;-95
2022/02/20 04:01:35;;;;;;;29.88;12.88;;;;;;;9.62;100.00;98906.09;5162593;27;20069;-93
2022/02/20 04:04:01;;;;;;;34.67;13.13;;;;;;;9.59;100.00;98900.88;5153718;27;20047;-94
2022/02/20 04:06:28;;;;;;;31.00;13.75;;;;;;;9.63;100.00;98899.91;5143185;27;20079;-95
2022/02/20 04:08:54;;;;;;;33.80;14.13;;;;;;;9.61;100.00;98899.91;5142964;27;20067;-95
2022/02/20 04:11:20;;;;;;;24.90;12.52;;;;;;;9.63;100.00;98902.56;5143291;27;20039;-94
2022/02/20 04:13:46;;;;;;;29.55;12.55;;;;;;;9.58;100.00;98899.09;5143803;27;20420;-95
2022/02/20 04:16:12;;;;;;;25.85;12.60;;;;;;;9.61;100.00;98888.44;5142805;27;20078;-94
2022/02/20 04:18:38;;;;;;;24.45;12.25;;;;;;;9.64;100.00;98880.38;5141845;27;20055;-94
2022/02/20 04:21:04;;;;;;;30.10;12.85;;;;;;;9.66;100.00;98876.78;5142216;27;20042;-95
2022/02/20 04:23:31;;;;;;;27.15;12.57;;;;;;;9.72;100.00;98890.84;5142280;27;20039;-95
2022/02/20 04:26:01;;;;;;;31.85;12.43;;;;;;;9.62;100.00;98879.53;5148406;27;20054;-94
2022/02/20 04:28:28;;;;;;;27.15;11.48;;;;;;;9.63;100.00;98879.53;5163094;27;20043;-96
2022/02/20 04:30:54;;;;;;;25.27;12.18;;;;;;;9.71;100.00;98903.22;5163801;27;20039;-95
2022/02/20 04:33:20;;;;;;;26.15;11.77;;;;;;;9.55;100.00;98883.25;5164842;27;20062;-93
2022/02/20 04:35:46;;;;;;;28.30;12.70;;;;;;;9.64;100.00;98888.34;5165701;27;20051;-95
2022/02/20 04:38:12;;;;;;;31.55;13.65;;;;;;;9.69;100.00;98901.53;5164495;27;20039;-93
2022/02/20 04:40:39;;;;;;;32.17;13.05;;;;;;;9.60;100.00;98876.91;5164976;27;20054;-95
2022/02/20 04:43:05;;;;;;;30.80;12.85;;;;;;;9.57;100.00;98866.38;5164435;27;20130;-95
2022/02/20 04:45:31;;;;;;;25.55;12.02;;;;;;;9.65;100.00;98880.38;5163868;27;20066;-95
2022/02/20 04:47:57;;;;;;;25.88;11.98;;;;;;;9.66;100.00;98884.75;5154967;27;20043;-94
2022/02/20 04:50:23;;;;;;;27.85;11.65;;;;;;;9.62;100.00;98874.22;5142791;27;20043;-95
2022/02/20 04:52:49;;;;;;;30.67;11.75;;;;;;;9.63;100.00;98870.69;5143119;27;20043;-92
2022/02/20 04:55:15;;;;;;;21.42;11.23;;;;;;;9.49;100.00;98875.41;5143754;27;20043;-95
2022/02/20 04:57:42;;;;;;;23.58;10.65;;;;;;;9.57;100.00;98905.31;5141865;27;20073;-95
2022/02/20 05:00:11;;;;;;;24.23;10.57;;;;;;;9.49;100.00;98899.28;5143054;27;20045;-95
2022/02/20 05:02:37;;;;;;;27.20;11.77;;;;;;;9.55;100.00;98915.97;5142696;27;20043;-94
2022/02/20 05:05:04;;;;;;;27.27;11.95;;;;;;;9.55;100.00;98915.97;5143271;27;20057;-94
2022/02/20 05:07:30;;;;;;;27.42;13.13;;;;;;;9.59;100.00;98911.47;5144270;27;20460;-94
2022/02/20 05:09:56;;;;;;;36.50;13.65;;;;;;;9.75;100.00;98930.63;5144354;27;20063;-94
2022/02/20 05:12:22;;;;;;;28.98;12.95;;;;;;;9.69;100.00;98917.47;5145088;27;20523;-94
2022/02/20 05:14:50;;;;;;;30.05;13.77;;;;;;;9.77;100.00;98927.00;5142834;27;20047;-94
2022/02/20 05:17:17;;;;;;;27.90;13.50;;;;;;;9.70;100.00;98924.53;5142668;27;20039;-92
2022/02/20 05:19:43;;;;;;;29.38;12.27;;;;;;;9.69;100.00;98926.28;5142483;27;20046;-94
2022/02/20 05:22:09;;;;;;;33.08;12.57;;;;;;;9.71;100.00;98926.28;5142943;27;20453;-95
2022/02/20 05:24:35;;;;;;;31.25;13.13;;;;;;;9.73;100.00;98927.13;5141047;27;20128;-94
2022/02/20 05:27:01;;;;;;;32.88;12.90;;;;;;;9.75;100.00;98927.97;5142422;27;20055;-94
2022/02/20 05:29:27;;;;;;;31.25;12.60;;;;;;;9.82;100.00;98934.88;5142653;27;20047;-94
2022/02/20 05:31:54;;;;;;;28.40;11.13;;;;;;;9.80;100.00;98934.03;5143063;27;20043;-94
2022/02/20 05:34:20;;;;;;;22.45;11.07;;;;;;;9.79;100.00;98929.66;5141582;27;20055;-94
2022/02/20 05:36:46;;;;;;;23.95;10.95;;;;;;;9.85;100.00;98940.16;5141385;27;20049;-94
2022/02/20 05:39:12;;;;;;;25.67;11.45;;;;;;;9.95;100.00;98960.25;5140832;27;20035;-94
2022/02/20 05:41:38;;;;;;;21.63;9.50;;;;;;;9.80;100.00;98937.59;5141484;27;20116;-95
2022/02/20 05:44:04;;;;;;;26.83;11.15;;;;;;;9.76;100.00;98938.56;5141404;27;20101;-94
2022/02/20 05:46:30;;;;;;;23.30;11.35;;;;;;;9.93;100.00;98966.53;5139935;27;20043;-95
2022/02/20 05:49:00;;;;;;;20.60;10.48;;;;;;;9.81;100.00;98938.44;5139503;27;20129;-94
2022/02/20 05:51:25;;;;;;;26.48;10.73;;;;;;;9.87;100.00;98954.25;5139724;27;20477;-94
2022/02/20 05:53:51;;;;;;;24.38;10.70;;;;;;;9.76;100.00;98935.00;5139276;27;20067;-94
2022/02/20 05:56:17;;;;;;;22.80;11.32;;;;;;;9.77;100.00;98936.78;5139555;27;20047;-94
2022/02/20 05:58:43;;;;;;;22.80;10.93;;;;;;;9.80;100.00;98944.66;5139262;27;20067;-94
2022/02/20 06:01:09;;;;;;;23.02;10.70;;;;;;;9.86;100.00;98952.50;5138920;27;20514;-94
2022/02/20 06:03:35;;;;;;;29.90;12.93;;;;;;;9.76;100.00;98929.69;5139303;27;20039;-94
2022/02/20 06:06:02;;;;;;;27.70;12.70;;;;;;;9.88;100.00;98962.19;5139399;27;20051;-93
2022/02/20 06:08:28;;;;;;;25.90;13.40;;;;;;;9.73;100.00;98946.56;5140289;27;20078;-94
2022/02/20 06:10:54;;;;;;;27.42;13.80;;;;;;;9.80;100.00;98969.47;5151884;27;20035;-94
2022/02/20 06:13:20;;;;;;;20.13;10.98;;;;;;;9.73;100.00;98953.66;5162762;27;20130;-92
2022/02/20 06:15:46;;;;;;;22.42;11.77;;;;;;;9.72;100.00;98957.25;5164446;27;20042;-93
2022/02/20 06:18:13;;;;;;;25.98;10.73;;;;;;;9.72;100.00;98957.25;5162746;27;20034;-95
2022/02/20 06:20:39;;;;;;;22.73;10.48;;;;;;;9.72;100.00;98967.88;5163869;27;20042;-95
2022/02/20 06:23:06;;;;;;;23.48;10.25;;;;;;;9.74;100.00;98964.28;5168693;27;20191;-94
2022/02/20 06:25:32;;;;;;;19.27;9.45;;;;;;;9.78;100.00;98968.63;5168833;27;20056;-95
2022/02/20 06:27:58;;;;;;;21.05;9.27;;;;;;;9.80;100.00;98971.22;5168908;27;20076;-95
2022/02/20 06:30:24;;;;;;;20.55;9.02;;;;;;;9.83;100.00;98974.69;5167768;27;20391;-95
2022/02/20 06:32:51;;;;;;;16.40;9.45;;;;;;;9.93;100.00;98995.75;5163545;27;20436;-95
2022/02/20 06:35:17;;;;;;;21.67;9.65;;;;;;;9.83;100.00;98987.97;5164236;27;20054;-94
2022/02/20 06:37:43;;;;;;;26.02;10.00;;;;;;;9.80;100.00;98985.41;5163101;27;20074;-94
2022/02/20 06:40:11;;;;;;;20.60;9.35;;;;;;;9.87;100.00;98997.63;5163702;27;20111;-95
2022/02/20 06:42:37;;;;;;;20.52;9.02;;;;;;;9.88;100.00;98998.50;5162574;27;20052;-96
2022/02/20 06:45:04;;;;;;;22.00;9.10;;;;;;;9.80;100.00;98996.03;5163140;27;20039;-94
2022/02/20 06:47:30;;;;;;;20.75;10.25;;;;;;;9.83;100.00;99011.00;5163091;27;20043;-95
2022/02/20 06:50:09;;;;;;;22.67;9.95;;;;;;;9.97;100.00;99039.94;5165603;27;20095;-95
2022/02/20 06:53:08;;;;;;;33.47;15.73;;;;;;;9.82;100.00;99003.94;5167938;27;20046;-96
2022/02/20 06:55:42;;;;;;;26.80;15.00;;;;;;;10.04;100.00;99044.22;5168134;27;20096;-95
2022/02/20 06:58:08;;;;;;;31.77;14.73;;;;;;;9.91;100.00;99005.53;5164485;27;20058;-94
2022/02/20 07:00:34;;;;;;;28.52;13.93;;;;;;;9.94;100.00;99003.69;5164045;27;20112;-96
2022/02/20 07:03:00;;;;;;;27.08;12.90;;;;;;;10.09;100.00;99029.06;5164604;27;20054;-95
2022/02/20 07:05:26;;;;;;;31.67;15.63;;;;;;;10.05;100.00;99012.31;5164678;27;20074;-94
2022/02/20 07:07:52;;;;;;;42.15;20.73;;;;;;;10.13;100.00;99022.78;5163331;27;20038;-95
2022/02/20 07:10:19;;;;;;;38.47;18.15;;;;;;;10.11;100.00;99008.66;5164333;27;20045;-95
2022/02/20 07:12:46;;;;;;;60.22;21.70;;;;;;;10.17;100.00;99020.91;5163787;27;20053;-95
2022/02/20 07:15:12;;;;;;;40.63;20.02;;;;;;;10.21;100.00;99023.50;5164070;27;20559;-95
2022/02/20 07:18:35;;;;;;;;;;;;;;;;;;;;;
2022/02/20 07:21:53;;;;;;;37.05;17.95;;;;;;;10.23;100.00;99029.63;5041415;28;20156;-96
2022/02/20 07:24:19;;;;;;;33.63;16.95;;;;;;;10.41;100.00;99057.66;5059014;28;20048;-95
2022/02/20 07:26:46;;;;;;;34.17;16.67;;;;;;;10.43;100.00;99039.88;5058165;28;20072;-95
2022/02/20 07:29:14;;;;;;;33.88;17.17;;;;;;;10.43;100.00;99025.69;5062500;28;20045;-95
2022/02/20 07:31:40;;;;;;;34.28;18.23;;;;;;;10.50;100.00;99027.31;5064155;28;20570;-95
2022/02/20 07:34:06;;;;;;;38.17;18.85;;;;;;;10.61;100.00;99041.25;5064456;28;20049;-95
2022/02/20 07:36:44;;;;;;;32.00;17.00;;;;;;;10.67;100.00;99046.44;5063922;28;20041;-95
2022/02/20 07:39:11;;;;;;;39.33;20.33;;;;;;;10.67;100.00;99032.25;5064634;28;20091;-96
2022/02/20 07:41:41;;;;;;;43.28;23.92;;;;;;;10.69;100.00;99028.66;5065287;28;20044;-94
2022/02/20 07:44:07;;;;;;;37.97;21.45;;;;;;;10.76;100.00;99037.38;5064876;28;20128;-95
2022/02/20 07:46:35;;;;;;;35.78;19.48;;;;;;;10.78;100.00;99035.53;5064672;28;20080;-95
2022/02/20 07:49:02;;;;;;;30.55;17.23;;;;;;;10.82;100.00;99045.19;5065968;28;20045;-95
2022/02/20 07:51:28;;;;;;;34.05;19.27;;;;;;;10.82;100.00;99037.22;5065266;28;20048;-95
2022/02/20 07:53:55;;;;;;;37.22;18.70;;;;;;;10.81;100.00;99030.13;5062898;28;20055;-95
2022/02/20 07:56:21;;;;;;;29.13;17.88;;;;;;;10.87;100.00;99045.09;5063966;28;20056;-96
2022/02/20 07:58:48;;;;;;;47.10;19.25;;;;;;;10.88;100.00;99047.69;5065137;28;20043;-95
2022/02/20 08:01:14;;;;;;;37.45;20.30;;;;;;;10.94;100.00;99061.78;5064580;28;20045;-95
2022/02/20 08:03:42;;;;;;;40.33;22.75;;;;;;;10.89;100.00;99069.88;5066726;28;20081;-93
2022/02/20 08:06:08;;;;;;;50.65;28.98;;;;;;;10.90;100.00;99063.63;5067390;28;20052;-95
2022/02/20 08:08:35;;;;;;;61.53;31.67;;;;;;;10.94;100.00;99061.78;5067351;28;20482;-95
2022/02/20 08:11:02;;;;;;;49.42;26.20;;;;;;;11.00;100.00;99059.84;5065189;28;20156;-94
2022/02/20 08:13:29;;;;;;;45.20;22.30;;;;;;;11.07;100.00;99060.56;5065176;28;20045;-95
2022/02/20 08:15:55;;;;;;;42.38;21.67;;;;;;;11.22;100.00;99073.50;5063095;28;20072;-95
2022/02/20 08:18:21;;;;;;;44.80;22.58;;;;;;;11.26;100.00;99064.53;5064501;28;20049;-95
2022/02/20 08:20:49;;;;;;;41.90;22.55;;;;;;;11.43;100.00;99076.53;5064306;28;20056;-95
2022/02/20 08:23:17;;;;;;;43.95;25.20;;;;;;;11.45;99.56;99066.69;5064830;28;20151;-94
2022/02/20 08:25:44;;;;;;;37.65;23.70;;;;;;;11.62;99.57;99091.09;5063717;28;20107;-95
2022/02/20 08:28:10;;;;;;;46.17;23.80;;;;;;;11.59;99.67;99077.88;5064144;28;20045;-95
2022/02/20 08:30:36;;;;;;;27.98;13.70;;;;;;;11.82;96.64;99085.28;5063836;28;20052;-95
2022/02/20 08:33:04;;;;;;;25.70;13.88;;;;;;;11.76;95.25;99069.44;5061913;28;20072;-95
2022/02/20 08:35:30;;;;;;;42.47;20.85;;;;;;;11.87;95.68;99088.69;5062516;28;20041;-96
2022/02/20 08:37:58;;;;;;;35.63;17.85;;;;;;;11.87;95.69;99091.34;5063785;28;20041;-95
2022/02/20 08:40:24;;;;;;;29.13;15.85;;;;;;;11.78;96.34;99094.25;5061636;28;20060;-96
2022/02/20 08:42:50;;;;;;;29.08;15.75;;;;;;;11.67;97.15;99101.66;5060673;28;20049;-96
2022/02/20 08:45:17;;;;;;;28.52;14.90;;;;;;;11.66;98.09;99098.09;5061783;28;20071;-95
2022/02/20 08:47:43;;;;;;;34.30;17.25;;;;;;;11.80;97.91;99120.88;5062016;28;20076;-95
2022/02/20 08:50:12;;;;;;;33.17;15.43;;;;;;;11.81;96.76;99117.28;5063015;28;20132;-95
2022/02/20 08:52:38;;;;;;;28.33;15.55;;;;;;;11.80;96.20;99110.22;5062921;28;20139;-96
2022/02/20 08:55:07;;;;;;;26.27;13.77;;;;;;;11.81;94.34;99109.28;5063431;28;20107;-95
2022/02/20 08:57:34;;;;;;;31.63;14.20;;;;;;;11.85;94.89;99111.81;5061017;28;20051;-94
2022/02/20 09:00:01;;;;;;;129.88;53.75;;;;;;;11.89;95.34;99124.19;5060234;28;20060;-94
2022/02/20 09:02:27;;;;;;;70.93;36.13;;;;;;;11.99;95.41;99114.16;5060901;28;20041;-94
2022/02/20 09:04:53;;;;;;;40.33;21.20;;;;;;;12.12;94.82;99112.91;5066355;28;20045;-94
2022/02/20 09:07:20;;;;;;;45.10;20.27;;;;;;;12.33;93.50;99115.88;5079867;28;20052;-94
2022/02/20 09:09:47;;;;;;;45.47;19.77;;;;;;;12.52;92.57;99125.09;5080242;28;20044;-95
2022/02/20 09:12:14;;;;;;;40.20;20.00;;;;;;;12.62;91.26;99120.38;5080028;28;20093;-94
2022/02/20 09:14:41;;;;;;;266.27;100.55;;;;;;;12.84;91.01;99127.72;5079044;28;20040;-96
2022/02/20 09:17:07;;;;;;;81.65;36.03;;;;;;;12.98;89.56;99128.16;5061686;28;20045;-96
2022/02/20 09:19:36;;;;;;;35.33;19.05;;;;;;;12.93;89.46;99117.63;5055140;28;20152;-94
2022/02/20 09:22:02;;;;;;;45.75;18.98;;;;;;;13.07;88.67;99130.53;5054861;28;20045;-94
2022/02/20 09:24:28;;;;;;;31.05;19.00;;;;;;;13.07;87.98;99119.84;5055037;28;20045;-94
2022/02/20 09:26:54;;;;;;;33.35;17.70;;;;;;;13.23;87.91;99141.63;5054792;28;20099;-96
2022/02/20 09:29:33;;;;;;;36.95;20.35;;;;;;;13.19;87.23;99118.59;5055425;28;20037;-95
2022/02/20 09:31:59;;;;;;;51.00;30.17;;;;;;;13.09;87.45;99104.66;5057066;28;20095;-94
2022/02/20 09:34:25;;;;;;;45.35;26.25;;;;;;;13.22;87.58;99113.16;5058259;28;20075;-95
2022/02/20 09:36:51;;;;;;;59.92;35.17;;;;;;;13.30;87.75;99124.50;5058407;28;20037;-94
2022/02/20 09:39:19;;;;;;;48.75;26.10;;;;;;;13.26;86.40;99119.28;5058383;28;20037;-94
2022/02/20 09:41:45;;;;;;;40.03;22.23;;;;;;;13.38;85.76;99120.69;5058508;28;20632;-95
2022/02/20 09:44:11;;;;;;;39.13;20.75;;;;;;;13.81;84.47;99124.59;5058281;28;20044;-94
2022/02/20 09:46:41;;;;;;;49.05;24.27;;;;;;;13.71;81.89;99119.59;5055302;28;20045;-95
2022/02/20 09:49:08;;;;;;;43.95;25.73;;;;;;;13.62;83.96;99113.66;5055985;28;20044;-95
2022/02/20 09:51:34;;;;;;;23.80;11.48;;;;;;;13.82;80.25;99129.91;5054831;28;20524;-95
2022/02/20 09:54:00;;;;;;;36.28;20.33;;;;;;;13.62;81.55;99103.88;5056445;28;20151;-95
2022/02/20 09:56:27;;;;;;;37.15;15.85;;;;;;;13.54;81.95;99096.09;5056824;28;20048;-96
2022/02/20 09:58:53;;;;;;;30.55;13.93;;;;;;;13.58;81.28;99093.34;5056080;28;20098;-94
2022/02/20 10:01:20;;;;;;;29.30;14.63;;;;;;;13.63;80.74;99094.06;5055273;28;20423;-95
2022/02/20 10:03:48;;;;;;;22.63;10.35;;;;;;;14.04;77.47;99108.63;5055458;28;20394;-95
2022/02/20 10:06:18;;;;;;;45.70;22.80;;;;;;;14.05;78.40;99097.03;5054063;28;20092;-95
2022/02/20 10:08:45;;;;;;;28.73;18.05;;;;;;;13.89;79.97;99077.09;5054411;28;20036;-94
2022/02/20 10:11:19;;;;;;;27.75;13.20;;;;;;;14.29;78.93;99108.63;5054721;28;20164;-95
2022/02/20 10:13:46;;;;;;;25.55;12.30;;;;;;;13.90;79.85;99095.75;5109727;27;20072;-95
2022/02/20 10:16:22;;;;;;;24.67;13.30;;;;;;;13.95;81.37;99098.28;5143067;27;20404;-95
2022/02/20 10:18:51;;;;;;;24.83;13.48;;;;;;;14.14;79.70;99077.09;5137412;27;20044;-96
2022/02/20 10:21:18;;;;;;;24.27;12.40;;;;;;;14.45;76.72;99059.91;5158711;27;20034;-95
2022/02/20 10:23:45;;;;;;;23.77;12.00;;;;;;;14.81;74.78;99067.44;5159630;27;20182;-96
2022/02/20 10:26:12;;;;;;;29.73;12.43;;;;;;;15.16;73.89;99071.41;5158988;27;20038;-95
2022/02/20 10:28:58;;;;;;;24.35;10.70;;;;;;;15.47;71.48;99080.84;5159303;27;20035;-96
2022/02/20 10:31:41;;;;;;;37.15;20.83;;;;;;;14.73;73.15;99082.00;5156599;27;20047;-94
2022/02/20 10:34:11;;;;;;;17.52;9.98;;;;;;;14.61;74.34;99079.78;5160133;27;20050;-95
2022/02/20 10:36:52;;;;;;;34.95;18.88;;;;;;;14.36;76.27;99091.41;5159243;27;20038;-95
2022/02/20 10:39:25;;;;;;;29.25;14.52;;;;;;;14.41;77.06;99061.81;5145341;27;20054;-95
2022/02/20 10:41:53;;;;;;;23.67;12.52;;;;;;;15.05;74.70;99065.59;5161277;27;20043;-96
2022/02/20 10:44:20;;;;;;;30.70;16.30;;;;;;;15.35;72.84;99053.63;5166011;27;20500;-96
2022/02/20 10:47:05;;;;;;;23.27;14.82;;;;;;;15.27;72.99;99047.72;5166622;27;20035;-96
2022/02/20 10:49:34;;;;;;;26.23;14.57;;;;;;;15.62;70.67;99069.47;5165349;27;20051;-96
2022/02/20 10:52:02;;;;;;;22.02;9.85;;;;;;;15.88;70.29;99063.00;5164134;27;20039;-91
2022/02/20 10:54:30;;;;;;;24.00;11.57;;;;;;;16.21;68.97;99057.94;5145352;27;20035;-96
2022/02/20 10:56:56;;;;;;;19.27;9.73;;;;;;;16.03;67.27;99053.41;5144359;27;20046;-96
2022/02/20 10:59:23;;;;;;;22.17;11.68;;;;;;;15.80;68.44;99038.31;5152747;27;20042;-94
2022/02/20 11:01:49;;;;;;;24.25;16.35;;;;;;;15.72;68.60;99025.28;5166731;27;20058;-96
2022/02/20 11:04:18;;;;;;;24.45;13.98;;;;;;;15.84;68.70;99023.84;5169073;27;20089;-96
2022/02/20 11:06:49;;;;;;;40.78;26.25;;;;;;;15.73;67.36;99043.09;5167431;27;20059;-96
2022/02/20 11:09:16;;;;;;;21.13;10.15;;;;;;;15.24;68.42;99012.13;5166795;27;20039;-94
2022/02/20 11:11:49;;;;;;;17.85;10.48;;;;;;;15.14;70.00;99025.91;5169195;27;20026;-94
2022/02/20 11:14:17;;;;;;;30.02;15.32;;;;;;;14.98;71.09;99019.44;5168073;27;20068;-95
2022/02/20 11:16:46;;;;;;;36.83;19.60;;;;;;;14.38;73.14;99013.78;5166083;27;20035;-96
2022/02/20 11:19:15;;;;;;;37.08;20.23;;;;;;;14.40;74.00;99027.97;5166819;27;20076;-95